sensor_id;sensor_type;location;lat;lon;timestamp;P1;durP1;ratioP1;P2;durP2;ratioP2
13234;SDS011;6683;48.506;9.050;2024-01-25T00:00:32;2.50;;;1.10;;
13234;SDS011;6683;48.506;9.050;2024-01-25T00:03:35;3.30;;;1.30;;
13234;SDS011;6683;48.506;9.050;2024-01-25T00:06:37;3.43;;;1.13;;
13234;SDS011;6683;48.506;9.050;2024-01-25T00:09:39;4.20;;;1.40;;
13234;SDS011;6683;48.506;9.050;2024-01-25T00:12:41;5.73;;;1.50;;
13234;SDS011;6683;48.506;9.050;2024-01-25T00:15:45;4.70;;;1.33;;
13234;SDS011;6683;48.506;9.050;2024-01-25T00:18:47;6.57;;;1.50;;
13234;SDS011;6683;48.506;9.050;2024-01-25T00:21:49;5.57;;;1.33;;
13234;SDS011;6683;48.506;9.050;2024-01-25T00:24:51;4.07;;;1.03;;
13234;SDS011;6683;48.506;9.050;2024-01-25T00:27:53;4.27;;;1.03;;
13234;SDS011;6683;48.506;9.050;2024-01-25T00:30:56;5.87;;;1.50;;
13234;SDS011;6683;48.506;9.050;2024-01-25T00:33:59;7.37;;;1.50;;
13234;SDS011;6683;48.506;9.050;2024-01-25T00:37:02;4.73;;;1.50;;
13234;SDS011;6683;48.506;9.050;2024-01-25T00:40:05;2.93;;;1.00;;
13234;SDS011;6683;48.506;9.050;2024-01-25T00:43:09;3.40;;;1.40;;
13234;SDS011;6683;48.506;9.050;2024-01-25T00:46:14;4.97;;;1.60;;
13234;SDS011;6683;48.506;9.050;2024-01-25T00:49:17;4.23;;;1.53;;
13234;SDS011;6683;48.506;9.050;2024-01-25T00:52:19;6.70;;;1.70;;
13234;SDS011;6683;48.506;9.050;2024-01-25T00:55:22;4.03;;;1.33;;
13234;SDS011;6683;48.506;9.050;2024-01-25T00:58:25;3.13;;;1.30;;
13234;SDS011;6683;48.506;9.050;2024-01-25T01:01:30;3.93;;;1.30;;
13234;SDS011;6683;48.506;9.050;2024-01-25T01:04:33;4.40;;;1.57;;
13234;SDS011;6683;48.506;9.050;2024-01-25T01:07:37;3.40;;;1.10;;
13234;SDS011;6683;48.506;9.050;2024-01-25T01:10:40;4.83;;;1.40;;
13234;SDS011;6683;48.506;9.050;2024-01-25T01:13:42;4.67;;;1.30;;
13234;SDS011;6683;48.506;9.050;2024-01-25T01:16:46;6.33;;;1.33;;
13234;SDS011;6683;48.506;9.050;2024-01-25T01:19:50;4.17;;;1.40;;
13234;SDS011;6683;48.506;9.050;2024-01-25T01:22:52;4.43;;;1.20;;
13234;SDS011;6683;48.506;9.050;2024-01-25T01:25:54;4.27;;;1.40;;
13234;SDS011;6683;48.506;9.050;2024-01-25T01:28:56;7.10;;;1.53;;
13234;SDS011;6683;48.506;9.050;2024-01-25T01:32:00;5.83;;;1.23;;
13234;SDS011;6683;48.506;9.050;2024-01-25T01:35:03;2.50;;;1.17;;
13234;SDS011;6683;48.506;9.050;2024-01-25T01:38:06;4.27;;;1.40;;
13234;SDS011;6683;48.506;9.050;2024-01-25T01:41:09;4.77;;;1.20;;
13234;SDS011;6683;48.506;9.050;2024-01-25T01:44:12;6.27;;;1.33;;
13234;SDS011;6683;48.506;9.050;2024-01-25T01:47:16;2.70;;;0.80;;
13234;SDS011;6683;48.506;9.050;2024-01-25T01:50:18;3.10;;;0.93;;
13234;SDS011;6683;48.506;9.050;2024-01-25T01:53:20;4.03;;;1.00;;
13234;SDS011;6683;48.506;9.050;2024-01-25T01:56:23;3.30;;;1.37;;
13234;SDS011;6683;48.506;9.050;2024-01-25T01:59:27;3.10;;;1.00;;
13234;SDS011;6683;48.506;9.050;2024-01-25T02:02:31;5.20;;;2.10;;
13234;SDS011;6683;48.506;9.050;2024-01-25T02:05:34;5.53;;;1.20;;
13234;SDS011;6683;48.506;9.050;2024-01-25T02:08:36;4.27;;;1.13;;
13234;SDS011;6683;48.506;9.050;2024-01-25T02:11:39;3.73;;;0.90;;
13234;SDS011;6683;48.506;9.050;2024-01-25T02:14:41;4.20;;;0.97;;
13234;SDS011;6683;48.506;9.050;2024-01-25T02:17:44;3.60;;;1.27;;
13234;SDS011;6683;48.506;9.050;2024-01-25T02:20:46;3.83;;;0.93;;
13234;SDS011;6683;48.506;9.050;2024-01-25T02:23:50;4.73;;;0.90;;
13234;SDS011;6683;48.506;9.050;2024-01-25T02:26:53;5.10;;;1.00;;
13234;SDS011;6683;48.506;9.050;2024-01-25T02:29:55;4.00;;;1.00;;
13234;SDS011;6683;48.506;9.050;2024-01-25T02:32:57;5.27;;;1.50;;
13234;SDS011;6683;48.506;9.050;2024-01-25T02:35:59;5.17;;;1.13;;
13234;SDS011;6683;48.506;9.050;2024-01-25T02:39:02;5.20;;;1.40;;
13234;SDS011;6683;48.506;9.050;2024-01-25T02:42:05;3.43;;;1.00;;
13234;SDS011;6683;48.506;9.050;2024-01-25T02:45:08;3.33;;;1.00;;
13234;SDS011;6683;48.506;9.050;2024-01-25T02:48:10;2.90;;;0.90;;
13234;SDS011;6683;48.506;9.050;2024-01-25T02:51:12;3.70;;;0.93;;
13234;SDS011;6683;48.506;9.050;2024-01-25T02:54:16;3.33;;;1.00;;
13234;SDS011;6683;48.506;9.050;2024-01-25T02:57:18;4.57;;;1.00;;
13234;SDS011;6683;48.506;9.050;2024-01-25T03:00:20;3.37;;;1.20;;
13234;SDS011;6683;48.506;9.050;2024-01-25T03:03:23;4.70;;;1.17;;
13234;SDS011;6683;48.506;9.050;2024-01-25T03:06:25;3.30;;;0.93;;
13234;SDS011;6683;48.506;9.050;2024-01-25T03:09:28;2.87;;;1.10;;
13234;SDS011;6683;48.506;9.050;2024-01-25T03:12:30;3.73;;;1.10;;
13234;SDS011;6683;48.506;9.050;2024-01-25T03:15:32;3.23;;;0.93;;
13234;SDS011;6683;48.506;9.050;2024-01-25T03:18:35;5.93;;;1.47;;
13234;SDS011;6683;48.506;9.050;2024-01-25T03:21:37;3.73;;;1.40;;
13234;SDS011;6683;48.506;9.050;2024-01-25T03:24:40;3.63;;;1.00;;
13234;SDS011;6683;48.506;9.050;2024-01-25T03:27:42;4.83;;;1.10;;
13234;SDS011;6683;48.506;9.050;2024-01-25T03:30:44;2.40;;;1.07;;
13234;SDS011;6683;48.506;9.050;2024-01-25T03:33:46;4.63;;;1.23;;
13234;SDS011;6683;48.506;9.050;2024-01-25T03:36:48;5.03;;;1.20;;
13234;SDS011;6683;48.506;9.050;2024-01-25T03:39:55;2.00;;;0.80;;
13234;SDS011;6683;48.506;9.050;2024-01-25T03:42:57;3.17;;;0.90;;
13234;SDS011;6683;48.506;9.050;2024-01-25T03:45:59;3.07;;;0.90;;
13234;SDS011;6683;48.506;9.050;2024-01-25T03:49:01;2.43;;;1.10;;
13234;SDS011;6683;48.506;9.050;2024-01-25T03:52:04;4.40;;;1.43;;
13234;SDS011;6683;48.506;9.050;2024-01-25T03:55:09;3.17;;;1.00;;
13234;SDS011;6683;48.506;9.050;2024-01-25T03:58:11;2.30;;;1.10;;
13234;SDS011;6683;48.506;9.050;2024-01-25T04:01:13;2.63;;;1.00;;
13234;SDS011;6683;48.506;9.050;2024-01-25T04:04:15;4.80;;;1.27;;
13234;SDS011;6683;48.506;9.050;2024-01-25T04:07:17;2.40;;;0.77;;
13234;SDS011;6683;48.506;9.050;2024-01-25T04:10:20;1.97;;;0.80;;
13234;SDS011;6683;48.506;9.050;2024-01-25T04:13:22;1.73;;;0.80;;
13234;SDS011;6683;48.506;9.050;2024-01-25T04:16:25;1.17;;;0.70;;
13234;SDS011;6683;48.506;9.050;2024-01-25T04:19:27;2.53;;;0.90;;
13234;SDS011;6683;48.506;9.050;2024-01-25T04:22:29;2.17;;;1.47;;
13234;SDS011;6683;48.506;9.050;2024-01-25T04:25:33;2.20;;;0.83;;
13234;SDS011;6683;48.506;9.050;2024-01-25T04:28:35;1.83;;;0.87;;
13234;SDS011;6683;48.506;9.050;2024-01-25T04:31:42;4.37;;;1.30;;
13234;SDS011;6683;48.506;9.050;2024-01-25T04:34:45;3.67;;;1.10;;
13234;SDS011;6683;48.506;9.050;2024-01-25T04:37:47;2.57;;;0.83;;
13234;SDS011;6683;48.506;9.050;2024-01-25T04:40:51;2.73;;;1.10;;
13234;SDS011;6683;48.506;9.050;2024-01-25T04:43:53;5.00;;;1.30;;
13234;SDS011;6683;48.506;9.050;2024-01-25T04:46:55;2.53;;;0.80;;
13234;SDS011;6683;48.506;9.050;2024-01-25T04:49:57;2.23;;;0.87;;
13234;SDS011;6683;48.506;9.050;2024-01-25T04:53:01;1.20;;;0.80;;
13234;SDS011;6683;48.506;9.050;2024-01-25T04:56:05;1.53;;;0.77;;
13234;SDS011;6683;48.506;9.050;2024-01-25T04:59:08;1.37;;;0.70;;
13234;SDS011;6683;48.506;9.050;2024-01-25T05:02:10;1.83;;;0.90;;
13234;SDS011;6683;48.506;9.050;2024-01-25T05:05:12;3.10;;;0.93;;
13234;SDS011;6683;48.506;9.050;2024-01-25T05:08:14;2.30;;;1.00;;
13234;SDS011;6683;48.506;9.050;2024-01-25T05:11:17;2.03;;;0.77;;
13234;SDS011;6683;48.506;9.050;2024-01-25T05:14:19;2.30;;;0.80;;
13234;SDS011;6683;48.506;9.050;2024-01-25T05:17:21;2.23;;;1.20;;
13234;SDS011;6683;48.506;9.050;2024-01-25T05:20:23;2.60;;;1.03;;
13234;SDS011;6683;48.506;9.050;2024-01-25T05:23:32;3.53;;;1.00;;
13234;SDS011;6683;48.506;9.050;2024-01-25T05:26:35;2.13;;;0.90;;
13234;SDS011;6683;48.506;9.050;2024-01-25T05:29:37;2.33;;;0.90;;
13234;SDS011;6683;48.506;9.050;2024-01-25T05:32:39;3.30;;;1.20;;
13234;SDS011;6683;48.506;9.050;2024-01-25T05:35:41;1.27;;;0.73;;
13234;SDS011;6683;48.506;9.050;2024-01-25T05:38:43;3.90;;;1.20;;
13234;SDS011;6683;48.506;9.050;2024-01-25T05:41:47;4.63;;;1.20;;
13234;SDS011;6683;48.506;9.050;2024-01-25T05:44:49;3.73;;;1.23;;
13234;SDS011;6683;48.506;9.050;2024-01-25T05:47:51;3.33;;;1.00;;
13234;SDS011;6683;48.506;9.050;2024-01-25T05:50:53;3.87;;;1.27;;
13234;SDS011;6683;48.506;9.050;2024-01-25T05:53:55;4.20;;;1.00;;
13234;SDS011;6683;48.506;9.050;2024-01-25T05:56:58;3.33;;;1.13;;
13234;SDS011;6683;48.506;9.050;2024-01-25T06:00:00;3.43;;;1.00;;
13234;SDS011;6683;48.506;9.050;2024-01-25T06:03:03;2.23;;;0.90;;
13234;SDS011;6683;48.506;9.050;2024-01-25T06:06:06;2.93;;;0.90;;
13234;SDS011;6683;48.506;9.050;2024-01-25T06:09:08;3.30;;;1.13;;
13234;SDS011;6683;48.506;9.050;2024-01-25T06:12:12;4.23;;;1.27;;
13234;SDS011;6683;48.506;9.050;2024-01-25T06:15:14;3.27;;;1.00;;
13234;SDS011;6683;48.506;9.050;2024-01-25T06:21:56;2.63;;;1.07;;
13234;SDS011;6683;48.506;9.050;2024-01-25T06:24:58;1.53;;;0.87;;
13234;SDS011;6683;48.506;9.050;2024-01-25T06:28:01;3.00;;;1.10;;
13234;SDS011;6683;48.506;9.050;2024-01-25T06:31:04;1.90;;;0.90;;
13234;SDS011;6683;48.506;9.050;2024-01-25T06:34:06;4.07;;;1.20;;
13234;SDS011;6683;48.506;9.050;2024-01-25T06:37:08;2.60;;;1.13;;
13234;SDS011;6683;48.506;9.050;2024-01-25T06:40:12;2.73;;;1.37;;
13234;SDS011;6683;48.506;9.050;2024-01-25T06:43:15;2.07;;;1.20;;
13234;SDS011;6683;48.506;9.050;2024-01-25T06:46:17;2.70;;;1.33;;
13234;SDS011;6683;48.506;9.050;2024-01-25T06:49:19;3.73;;;1.50;;
13234;SDS011;6683;48.506;9.050;2024-01-25T06:52:21;4.97;;;1.27;;
13234;SDS011;6683;48.506;9.050;2024-01-25T06:55:23;2.23;;;1.40;;
13234;SDS011;6683;48.506;9.050;2024-01-25T06:58:27;2.17;;;1.30;;
13234;SDS011;6683;48.506;9.050;2024-01-25T07:01:29;2.93;;;1.50;;
13234;SDS011;6683;48.506;9.050;2024-01-25T07:04:32;2.43;;;1.10;;
13234;SDS011;6683;48.506;9.050;2024-01-25T07:07:34;1.63;;;1.00;;
13234;SDS011;6683;48.506;9.050;2024-01-25T07:10:38;3.20;;;1.33;;
13234;SDS011;6683;48.506;9.050;2024-01-25T07:13:42;3.17;;;1.20;;
13234;SDS011;6683;48.506;9.050;2024-01-25T07:16:44;1.30;;;0.70;;
13234;SDS011;6683;48.506;9.050;2024-01-25T07:19:46;1.80;;;1.00;;
13234;SDS011;6683;48.506;9.050;2024-01-25T07:22:48;1.70;;;0.87;;
13234;SDS011;6683;48.506;9.050;2024-01-25T07:25:50;3.07;;;0.70;;
13234;SDS011;6683;48.506;9.050;2024-01-25T07:28:53;1.23;;;0.80;;
13234;SDS011;6683;48.506;9.050;2024-01-25T07:31:58;2.30;;;0.90;;
13234;SDS011;6683;48.506;9.050;2024-01-25T07:35:00;2.93;;;1.00;;
13234;SDS011;6683;48.506;9.050;2024-01-25T07:38:02;4.00;;;1.20;;
13234;SDS011;6683;48.506;9.050;2024-01-25T07:41:05;2.90;;;1.27;;
13234;SDS011;6683;48.506;9.050;2024-01-25T07:44:09;3.10;;;1.30;;
13234;SDS011;6683;48.506;9.050;2024-01-25T07:47:11;4.17;;;1.40;;
13234;SDS011;6683;48.506;9.050;2024-01-25T07:50:14;1.83;;;1.40;;
13234;SDS011;6683;48.506;9.050;2024-01-25T07:53:17;2.20;;;1.40;;
13234;SDS011;6683;48.506;9.050;2024-01-25T07:56:19;1.50;;;1.00;;
13234;SDS011;6683;48.506;9.050;2024-01-25T07:59:23;3.43;;;1.93;;
13234;SDS011;6683;48.506;9.050;2024-01-25T08:02:25;2.17;;;1.20;;
13234;SDS011;6683;48.506;9.050;2024-01-25T08:05:27;2.00;;;1.00;;
13234;SDS011;6683;48.506;9.050;2024-01-25T08:08:29;1.60;;;1.03;;
13234;SDS011;6683;48.506;9.050;2024-01-25T08:11:32;2.70;;;1.23;;
13234;SDS011;6683;48.506;9.050;2024-01-25T08:14:35;2.03;;;1.20;;
13234;SDS011;6683;48.506;9.050;2024-01-25T08:17:37;2.67;;;1.00;;
13234;SDS011;6683;48.506;9.050;2024-01-25T08:20:39;1.47;;;1.27;;
13234;SDS011;6683;48.506;9.050;2024-01-25T08:23:41;3.67;;;1.23;;
13234;SDS011;6683;48.506;9.050;2024-01-25T08:26:43;3.80;;;1.30;;
13234;SDS011;6683;48.506;9.050;2024-01-25T08:29:47;2.30;;;0.90;;
13234;SDS011;6683;48.506;9.050;2024-01-25T08:32:49;2.53;;;1.17;;
13234;SDS011;6683;48.506;9.050;2024-01-25T08:35:51;3.60;;;1.03;;
13234;SDS011;6683;48.506;9.050;2024-01-25T08:38:53;3.07;;;1.10;;
13234;SDS011;6683;48.506;9.050;2024-01-25T08:41:55;5.77;;;1.43;;
13234;SDS011;6683;48.506;9.050;2024-01-25T08:45:03;3.13;;;1.30;;
13234;SDS011;6683;48.506;9.050;2024-01-25T08:48:09;4.13;;;1.67;;
13234;SDS011;6683;48.506;9.050;2024-01-25T08:51:11;3.10;;;1.27;;
13234;SDS011;6683;48.506;9.050;2024-01-25T08:54:13;4.00;;;1.23;;
13234;SDS011;6683;48.506;9.050;2024-01-25T08:57:15;2.43;;;1.00;;
13234;SDS011;6683;48.506;9.050;2024-01-25T09:00:19;2.03;;;1.00;;
13234;SDS011;6683;48.506;9.050;2024-01-25T09:03:21;1.93;;;0.90;;
13234;SDS011;6683;48.506;9.050;2024-01-25T09:06:24;2.90;;;1.00;;
13234;SDS011;6683;48.506;9.050;2024-01-25T09:09:26;2.20;;;0.90;;
13234;SDS011;6683;48.506;9.050;2024-01-25T09:12:28;3.17;;;0.77;;
13234;SDS011;6683;48.506;9.050;2024-01-25T09:15:31;2.77;;;1.40;;
13234;SDS011;6683;48.506;9.050;2024-01-25T09:18:33;2.17;;;1.13;;
13234;SDS011;6683;48.506;9.050;2024-01-25T09:21:37;2.50;;;1.03;;
13234;SDS011;6683;48.506;9.050;2024-01-25T09:24:40;3.73;;;0.90;;
13234;SDS011;6683;48.506;9.050;2024-01-25T09:27:42;3.60;;;0.90;;
13234;SDS011;6683;48.506;9.050;2024-01-25T09:30:45;2.30;;;0.90;;
13234;SDS011;6683;48.506;9.050;2024-01-25T09:33:47;1.53;;;0.90;;
13234;SDS011;6683;48.506;9.050;2024-01-25T09:36:49;1.73;;;0.97;;
13234;SDS011;6683;48.506;9.050;2024-01-25T09:39:51;2.30;;;1.00;;
13234;SDS011;6683;48.506;9.050;2024-01-25T09:42:54;3.57;;;1.10;;
13234;SDS011;6683;48.506;9.050;2024-01-25T09:45:58;2.37;;;0.97;;
13234;SDS011;6683;48.506;9.050;2024-01-25T09:49:02;3.37;;;1.30;;
13234;SDS011;6683;48.506;9.050;2024-01-25T09:52:07;3.03;;;1.30;;
13234;SDS011;6683;48.506;9.050;2024-01-25T09:55:13;5.33;;;1.20;;
13234;SDS011;6683;48.506;9.050;2024-01-25T09:58:19;3.73;;;1.10;;
13234;SDS011;6683;48.506;9.050;2024-01-25T10:01:22;2.67;;;0.83;;
13234;SDS011;6683;48.506;9.050;2024-01-25T10:04:25;2.83;;;0.80;;
13234;SDS011;6683;48.506;9.050;2024-01-25T10:07:36;3.57;;;1.00;;
13234;SDS011;6683;48.506;9.050;2024-01-25T10:10:39;3.60;;;1.00;;
13234;SDS011;6683;48.506;9.050;2024-01-25T10:13:41;3.43;;;1.17;;
13234;SDS011;6683;48.506;9.050;2024-01-25T10:16:46;2.73;;;1.20;;
13234;SDS011;6683;48.506;9.050;2024-01-25T10:19:48;4.40;;;1.47;;
13234;SDS011;6683;48.506;9.050;2024-01-25T10:22:50;2.47;;;1.10;;
13234;SDS011;6683;48.506;9.050;2024-01-25T10:25:52;5.40;;;1.40;;
13234;SDS011;6683;48.506;9.050;2024-01-25T10:28:54;4.97;;;1.27;;
13234;SDS011;6683;48.506;9.050;2024-01-25T10:31:58;2.97;;;1.13;;
13234;SDS011;6683;48.506;9.050;2024-01-25T10:35:00;4.17;;;1.20;;
13234;SDS011;6683;48.506;9.050;2024-01-25T10:38:03;6.03;;;1.10;;
13234;SDS011;6683;48.506;9.050;2024-01-25T10:41:06;3.83;;;1.27;;
13234;SDS011;6683;48.506;9.050;2024-01-25T10:44:08;6.80;;;1.40;;
13234;SDS011;6683;48.506;9.050;2024-01-25T10:47:12;3.97;;;1.37;;
13234;SDS011;6683;48.506;9.050;2024-01-25T10:50:14;3.23;;;1.20;;
13234;SDS011;6683;48.506;9.050;2024-01-25T10:53:17;2.97;;;1.27;;
13234;SDS011;6683;48.506;9.050;2024-01-25T10:56:19;3.67;;;1.10;;
13234;SDS011;6683;48.506;9.050;2024-01-25T10:59:22;3.60;;;1.20;;
13234;SDS011;6683;48.506;9.050;2024-01-25T11:02:26;4.43;;;1.90;;
13234;SDS011;6683;48.506;9.050;2024-01-25T11:05:29;4.20;;;1.60;;
13234;SDS011;6683;48.506;9.050;2024-01-25T11:08:32;3.77;;;1.30;;
13234;SDS011;6683;48.506;9.050;2024-01-25T11:11:37;4.37;;;1.10;;
13234;SDS011;6683;48.506;9.050;2024-01-25T11:14:39;6.60;;;1.53;;
13234;SDS011;6683;48.506;9.050;2024-01-25T11:17:43;4.07;;;1.13;;
13234;SDS011;6683;48.506;9.050;2024-01-25T11:20:53;4.47;;;1.40;;
13234;SDS011;6683;48.506;9.050;2024-01-25T11:24:02;5.57;;;1.20;;
13234;SDS011;6683;48.506;9.050;2024-01-25T11:27:05;4.17;;;1.10;;
13234;SDS011;6683;48.506;9.050;2024-01-25T11:30:08;5.30;;;1.50;;
13234;SDS011;6683;48.506;9.050;2024-01-25T11:33:13;3.27;;;1.40;;
13234;SDS011;6683;48.506;9.050;2024-01-25T11:36:15;9.67;;;1.73;;
13234;SDS011;6683;48.506;9.050;2024-01-25T11:39:17;9.93;;;1.97;;
13234;SDS011;6683;48.506;9.050;2024-01-25T11:42:19;3.30;;;1.47;;
13234;SDS011;6683;48.506;9.050;2024-01-25T11:45:22;4.43;;;1.27;;
13234;SDS011;6683;48.506;9.050;2024-01-25T11:48:28;4.43;;;1.30;;
13234;SDS011;6683;48.506;9.050;2024-01-25T11:51:31;5.57;;;2.00;;
13234;SDS011;6683;48.506;9.050;2024-01-25T11:54:33;9.40;;;2.40;;
13234;SDS011;6683;48.506;9.050;2024-01-25T11:57:36;5.53;;;2.00;;
13234;SDS011;6683;48.506;9.050;2024-01-25T12:00:41;3.60;;;1.87;;
13234;SDS011;6683;48.506;9.050;2024-01-25T12:03:45;4.23;;;2.00;;
13234;SDS011;6683;48.506;9.050;2024-01-25T12:06:47;5.43;;;1.53;;
13234;SDS011;6683;48.506;9.050;2024-01-25T12:09:59;3.30;;;1.20;;
13234;SDS011;6683;48.506;9.050;2024-01-25T12:13:03;5.90;;;1.37;;
13234;SDS011;6683;48.506;9.050;2024-01-25T12:16:08;4.43;;;1.70;;
13234;SDS011;6683;48.506;9.050;2024-01-25T12:19:13;7.13;;;1.70;;
13234;SDS011;6683;48.506;9.050;2024-01-25T12:22:19;3.77;;;1.33;;
13234;SDS011;6683;48.506;9.050;2024-01-25T12:25:22;2.77;;;1.33;;
13234;SDS011;6683;48.506;9.050;2024-01-25T12:28:25;5.47;;;1.30;;
13234;SDS011;6683;48.506;9.050;2024-01-25T12:31:28;3.07;;;1.53;;
13234;SDS011;6683;48.506;9.050;2024-01-25T12:34:31;2.57;;;1.10;;
13234;SDS011;6683;48.506;9.050;2024-01-25T12:37:33;3.97;;;1.53;;
13234;SDS011;6683;48.506;9.050;2024-01-25T12:40:35;4.57;;;1.50;;
13234;SDS011;6683;48.506;9.050;2024-01-25T12:43:37;5.57;;;1.50;;
13234;SDS011;6683;48.506;9.050;2024-01-25T12:46:39;3.63;;;1.07;;
13234;SDS011;6683;48.506;9.050;2024-01-25T12:49:43;2.53;;;1.17;;
13234;SDS011;6683;48.506;9.050;2024-01-25T12:52:45;6.40;;;1.33;;
13234;SDS011;6683;48.506;9.050;2024-01-25T12:55:47;3.07;;;1.30;;
13234;SDS011;6683;48.506;9.050;2024-01-25T12:58:50;4.23;;;1.33;;
13234;SDS011;6683;48.506;9.050;2024-01-25T13:01:52;3.80;;;1.20;;
13234;SDS011;6683;48.506;9.050;2024-01-25T13:04:55;10.30;;;1.40;;
13234;SDS011;6683;48.506;9.050;2024-01-25T13:07:57;5.37;;;1.57;;
13234;SDS011;6683;48.506;9.050;2024-01-25T13:10:59;3.30;;;1.20;;
13234;SDS011;6683;48.506;9.050;2024-01-25T13:14:01;6.23;;;1.70;;
13234;SDS011;6683;48.506;9.050;2024-01-25T13:17:03;7.43;;;1.70;;
13234;SDS011;6683;48.506;9.050;2024-01-25T13:20:10;6.00;;;1.63;;
13234;SDS011;6683;48.506;9.050;2024-01-25T13:23:13;3.07;;;1.10;;
13234;SDS011;6683;48.506;9.050;2024-01-25T13:26:15;7.43;;;1.80;;
13234;SDS011;6683;48.506;9.050;2024-01-25T13:29:17;5.77;;;1.33;;
13234;SDS011;6683;48.506;9.050;2024-01-25T13:32:19;10.67;;;1.60;;
13234;SDS011;6683;48.506;9.050;2024-01-25T13:35:22;4.90;;;1.40;;
13234;SDS011;6683;48.506;9.050;2024-01-25T13:38:24;4.33;;;1.43;;
13234;SDS011;6683;48.506;9.050;2024-01-25T13:41:27;4.53;;;1.10;;
13234;SDS011;6683;48.506;9.050;2024-01-25T13:44:29;3.73;;;1.00;;
13234;SDS011;6683;48.506;9.050;2024-01-25T13:47:31;4.97;;;1.20;;
13234;SDS011;6683;48.506;9.050;2024-01-25T13:50:34;5.70;;;1.43;;
13234;SDS011;6683;48.506;9.050;2024-01-25T13:53:36;4.17;;;1.30;;
13234;SDS011;6683;48.506;9.050;2024-01-25T13:56:38;3.20;;;1.17;;
13234;SDS011;6683;48.506;9.050;2024-01-25T13:59:41;3.80;;;1.20;;
13234;SDS011;6683;48.506;9.050;2024-01-25T14:02:43;3.90;;;1.20;;
13234;SDS011;6683;48.506;9.050;2024-01-25T14:05:46;4.50;;;1.20;;
13234;SDS011;6683;48.506;9.050;2024-01-25T14:08:49;3.43;;;1.37;;
13234;SDS011;6683;48.506;9.050;2024-01-25T14:11:51;5.60;;;2.00;;
13234;SDS011;6683;48.506;9.050;2024-01-25T14:14:53;2.30;;;0.93;;
13234;SDS011;6683;48.506;9.050;2024-01-25T14:17:55;5.50;;;1.33;;
13234;SDS011;6683;48.506;9.050;2024-01-25T14:20:59;3.20;;;0.90;;
13234;SDS011;6683;48.506;9.050;2024-01-25T14:24:01;10.10;;;5.33;;
13234;SDS011;6683;48.506;9.050;2024-01-25T14:27:03;6.53;;;1.87;;
13234;SDS011;6683;48.506;9.050;2024-01-25T14:30:06;4.77;;;1.23;;
13234;SDS011;6683;48.506;9.050;2024-01-25T14:33:09;4.00;;;1.27;;
13234;SDS011;6683;48.506;9.050;2024-01-25T14:36:12;4.10;;;1.10;;
13234;SDS011;6683;48.506;9.050;2024-01-25T14:39:15;3.90;;;1.10;;
13234;SDS011;6683;48.506;9.050;2024-01-25T14:42:17;3.67;;;1.10;;
13234;SDS011;6683;48.506;9.050;2024-01-25T14:45:19;5.43;;;1.00;;
13234;SDS011;6683;48.506;9.050;2024-01-25T14:48:21;6.10;;;1.20;;
13234;SDS011;6683;48.506;9.050;2024-01-25T14:51:25;3.77;;;1.20;;
13234;SDS011;6683;48.506;9.050;2024-01-25T14:54:27;1.57;;;0.70;;
13234;SDS011;6683;48.506;9.050;2024-01-25T14:57:29;2.93;;;0.90;;
13234;SDS011;6683;48.506;9.050;2024-01-25T15:00:31;3.20;;;0.93;;
13234;SDS011;6683;48.506;9.050;2024-01-25T15:03:33;2.67;;;1.00;;
13234;SDS011;6683;48.506;9.050;2024-01-25T15:06:37;3.00;;;1.80;;
13234;SDS011;6683;48.506;9.050;2024-01-25T15:09:39;2.40;;;0.80;;
13234;SDS011;6683;48.506;9.050;2024-01-25T15:12:41;2.47;;;1.00;;
13234;SDS011;6683;48.506;9.050;2024-01-25T15:15:43;6.67;;;1.10;;
13234;SDS011;6683;48.506;9.050;2024-01-25T15:18:45;3.90;;;1.13;;
13234;SDS011;6683;48.506;9.050;2024-01-25T15:21:48;7.03;;;1.30;;
13234;SDS011;6683;48.506;9.050;2024-01-25T15:24:50;2.87;;;1.10;;
13234;SDS011;6683;48.506;9.050;2024-01-25T15:27:53;3.40;;;1.07;;
13234;SDS011;6683;48.506;9.050;2024-01-25T15:30:55;3.23;;;0.80;;
13234;SDS011;6683;48.506;9.050;2024-01-25T15:33:57;1.60;;;0.80;;
13234;SDS011;6683;48.506;9.050;2024-01-25T15:37:01;2.30;;;0.77;;
13234;SDS011;6683;48.506;9.050;2024-01-25T15:40:03;2.80;;;0.50;;
13234;SDS011;6683;48.506;9.050;2024-01-25T15:43:10;4.43;;;0.70;;
13234;SDS011;6683;48.506;9.050;2024-01-25T15:46:12;1.97;;;0.60;;
13234;SDS011;6683;48.506;9.050;2024-01-25T15:49:14;3.20;;;0.70;;
13234;SDS011;6683;48.506;9.050;2024-01-25T15:52:18;2.90;;;0.57;;
13234;SDS011;6683;48.506;9.050;2024-01-25T15:55:21;2.73;;;0.90;;
13234;SDS011;6683;48.506;9.050;2024-01-25T15:58:23;3.73;;;1.67;;
13234;SDS011;6683;48.506;9.050;2024-01-25T16:01:25;4.67;;;2.50;;
13234;SDS011;6683;48.506;9.050;2024-01-25T16:04:28;2.40;;;1.50;;
13234;SDS011;6683;48.506;9.050;2024-01-25T16:07:31;1.60;;;1.20;;
13234;SDS011;6683;48.506;9.050;2024-01-25T16:10:33;2.73;;;1.10;;
13234;SDS011;6683;48.506;9.050;2024-01-25T16:13:35;6.97;;;1.40;;
13234;SDS011;6683;48.506;9.050;2024-01-25T16:16:37;2.07;;;1.30;;
13234;SDS011;6683;48.506;9.050;2024-01-25T16:19:39;1.77;;;1.20;;
13234;SDS011;6683;48.506;9.050;2024-01-25T16:22:43;1.60;;;1.10;;
13234;SDS011;6683;48.506;9.050;2024-01-25T16:25:45;2.70;;;1.07;;
13234;SDS011;6683;48.506;9.050;2024-01-25T16:28:47;3.03;;;1.30;;
13234;SDS011;6683;48.506;9.050;2024-01-25T16:31:49;3.63;;;1.33;;
13234;SDS011;6683;48.506;9.050;2024-01-25T16:34:51;2.40;;;1.00;;
13234;SDS011;6683;48.506;9.050;2024-01-25T16:37:54;2.23;;;0.90;;
13234;SDS011;6683;48.506;9.050;2024-01-25T16:40:56;2.03;;;1.10;;
13234;SDS011;6683;48.506;9.050;2024-01-25T16:43:58;2.90;;;1.10;;
13234;SDS011;6683;48.506;9.050;2024-01-25T16:47:01;2.97;;;1.10;;
13234;SDS011;6683;48.506;9.050;2024-01-25T16:50:03;1.83;;;1.40;;
13234;SDS011;6683;48.506;9.050;2024-01-25T16:53:08;3.17;;;1.00;;
13234;SDS011;6683;48.506;9.050;2024-01-25T16:56:10;2.07;;;1.50;;
13234;SDS011;6683;48.506;9.050;2024-01-25T16:59:12;2.83;;;1.27;;
13234;SDS011;6683;48.506;9.050;2024-01-25T17:02:14;1.33;;;0.80;;
13234;SDS011;6683;48.506;9.050;2024-01-25T17:05:18;1.60;;;0.70;;
13234;SDS011;6683;48.506;9.050;2024-01-25T17:08:21;1.10;;;0.50;;
13234;SDS011;6683;48.506;9.050;2024-01-25T17:11:23;1.87;;;0.70;;
13234;SDS011;6683;48.506;9.050;2024-01-25T17:14:28;2.57;;;0.73;;
13234;SDS011;6683;48.506;9.050;2024-01-25T17:17:30;0.83;;;0.60;;
13234;SDS011;6683;48.506;9.050;2024-01-25T17:20:32;2.27;;;0.83;;
13234;SDS011;6683;48.506;9.050;2024-01-25T17:23:36;0.93;;;0.50;;
13234;SDS011;6683;48.506;9.050;2024-01-25T17:26:39;1.43;;;1.00;;
13234;SDS011;6683;48.506;9.050;2024-01-25T17:29:43;3.13;;;1.20;;
13234;SDS011;6683;48.506;9.050;2024-01-25T17:32:45;1.10;;;1.00;;
13234;SDS011;6683;48.506;9.050;2024-01-25T17:35:47;1.57;;;0.97;;
13234;SDS011;6683;48.506;9.050;2024-01-25T17:38:51;1.27;;;1.00;;
13234;SDS011;6683;48.506;9.050;2024-01-25T17:41:53;1.67;;;1.00;;
13234;SDS011;6683;48.506;9.050;2024-01-25T17:44:55;2.63;;;1.83;;
13234;SDS011;6683;48.506;9.050;2024-01-25T17:47:57;2.27;;;1.40;;
13234;SDS011;6683;48.506;9.050;2024-01-25T17:50:59;2.70;;;1.50;;
13234;SDS011;6683;48.506;9.050;2024-01-25T17:54:03;1.70;;;1.50;;
13234;SDS011;6683;48.506;9.050;2024-01-25T17:57:05;1.77;;;1.00;;
13234;SDS011;6683;48.506;9.050;2024-01-25T18:00:07;2.60;;;1.67;;
13234;SDS011;6683;48.506;9.050;2024-01-25T18:03:11;1.70;;;1.23;;
13234;SDS011;6683;48.506;9.050;2024-01-25T18:06:13;1.67;;;1.30;;
13234;SDS011;6683;48.506;9.050;2024-01-25T18:09:18;3.40;;;1.90;;
13234;SDS011;6683;48.506;9.050;2024-01-25T18:12:23;3.47;;;1.90;;
13234;SDS011;6683;48.506;9.050;2024-01-25T18:15:25;4.60;;;2.23;;
13234;SDS011;6683;48.506;9.050;2024-01-25T18:18:27;4.30;;;2.50;;
13234;SDS011;6683;48.506;9.050;2024-01-25T18:21:29;4.47;;;4.07;;
13234;SDS011;6683;48.506;9.050;2024-01-25T18:24:33;4.63;;;4.13;;
13234;SDS011;6683;48.506;9.050;2024-01-25T18:27:35;4.23;;;3.47;;
13234;SDS011;6683;48.506;9.050;2024-01-25T18:30:37;4.07;;;3.10;;
13234;SDS011;6683;48.506;9.050;2024-01-25T18:33:39;4.33;;;3.40;;
13234;SDS011;6683;48.506;9.050;2024-01-25T18:36:41;3.60;;;3.00;;
13234;SDS011;6683;48.506;9.050;2024-01-25T18:39:45;3.83;;;3.17;;